createdAt,value
2023-05-24T00:00:31.298Z,1.38
2023-05-24T00:03:03.457Z,1.20
2023-05-24T00:05:33.862Z,1.20
2023-05-24T00:08:04.240Z,1.13
2023-05-24T00:10:36.101Z,1.00
2023-05-24T00:13:08.976Z,1.30
2023-05-24T00:15:44.958Z,0.90
2023-05-24T00:18:21.582Z,1.23
2023-05-24T00:20:58.354Z,0.85
2023-05-24T00:23:30.746Z,1.10
2023-05-24T00:26:07.405Z,1.30
2023-05-24T00:28:38.786Z,1.45
2023-05-24T00:31:11.359Z,1.15
2023-05-24T00:33:41.803Z,1.15
2023-05-24T00:36:12.140Z,1.10
2023-05-24T00:38:42.302Z,1.15
2023-05-24T00:41:12.908Z,1.27
2023-05-24T00:43:43.740Z,1.23
2023-05-24T00:46:23.842Z,1.35
2023-05-24T00:48:54.951Z,1.38
2023-05-24T00:51:26.884Z,1.13
2023-05-24T00:53:58.491Z,1.27
2023-05-24T00:56:29.856Z,1.42
2023-05-24T00:59:00.665Z,0.90
2023-05-24T01:01:33.322Z,1.17
2023-05-24T01:04:04.484Z,1.23
2023-05-24T01:06:46.615Z,1.13
2023-05-24T01:09:31.819Z,1.17
2023-05-24T01:12:19.740Z,1.25
2023-05-24T01:15:07.347Z,1.00
2023-05-24T01:17:52.552Z,1.20
2023-05-24T01:20:26.690Z,1.33
2023-05-24T01:23:21.559Z,1.13
2023-05-24T01:26:21.557Z,1.27
2023-05-24T01:28:56.166Z,1.20
2023-05-24T01:31:27.854Z,1.30
2023-05-24T01:33:58.458Z,1.30
2023-05-24T01:36:28.660Z,1.20
2023-05-24T01:38:59.192Z,1.10
2023-05-24T01:41:42.675Z,0.93
2023-05-24T01:44:29.787Z,1.05
2023-05-24T01:47:13.345Z,0.98
2023-05-24T01:49:52.901Z,1.40
2023-05-24T01:52:26.397Z,1.25
2023-05-24T01:54:59.493Z,1.30
2023-05-24T01:57:31.610Z,1.10
2023-05-24T02:00:07.038Z,1.10
2023-05-24T02:02:37.958Z,1.17
2023-05-24T02:05:09.253Z,1.33
2023-05-24T02:07:39.669Z,1.38
2023-05-24T02:10:11.798Z,1.08
2023-05-24T02:12:42.336Z,1.10
2023-05-24T02:15:16.345Z,1.15
2023-05-24T02:17:46.787Z,1.08
2023-05-24T02:20:17.746Z,1.13
2023-05-24T02:22:48.398Z,1.13
2023-05-24T02:25:19.222Z,1.45
2023-05-24T02:27:49.875Z,1.38
2023-05-24T02:30:22.284Z,1.20
2023-05-24T02:32:52.705Z,1.30
2023-05-24T02:35:23.660Z,1.23
2023-05-24T02:37:53.856Z,1.20
2023-05-24T02:40:24.376Z,1.52
2023-05-24T02:42:53.883Z,1.80
2023-05-24T02:45:26.466Z,1.50
2023-05-24T02:47:56.808Z,1.30
2023-05-24T02:50:27.228Z,1.20
2023-05-24T02:52:57.557Z,1.20
2023-05-24T02:55:29.722Z,1.20
2023-05-24T02:58:00.102Z,1.33
2023-05-24T03:00:31.874Z,1.30
2023-05-24T03:03:03.685Z,1.10
2023-05-24T03:05:34.056Z,1.20
2023-05-24T03:08:04.661Z,1.20
2023-05-24T03:10:35.072Z,1.23
2023-05-24T03:13:05.329Z,1.17
2023-05-24T03:15:37.668Z,1.20
2023-05-24T03:18:07.870Z,1.10
2023-05-24T03:20:38.045Z,1.13
2023-05-24T03:23:10.075Z,1.40
2023-05-24T03:25:40.220Z,1.20
2023-05-24T03:28:11.099Z,1.25
2023-05-24T03:30:44.201Z,1.15
2023-05-24T03:33:17.043Z,1.30
2023-05-24T03:35:47.832Z,1.42
2023-05-24T03:38:18.533Z,1.20
2023-05-24T03:40:48.474Z,1.40
2023-05-24T03:43:19.381Z,1.00
2023-05-24T03:45:50.998Z,1.42
2023-05-24T03:48:21.310Z,1.27
2023-05-24T03:50:51.719Z,1.17
2023-05-24T03:53:23.330Z,1.25
2023-05-24T03:55:53.326Z,1.55
2023-05-24T03:58:23.309Z,1.30
2023-05-24T04:00:55.967Z,1.27
2023-05-24T04:03:26.530Z,1.33
2023-05-24T04:05:57.413Z,1.30
2023-05-24T04:08:27.926Z,1.60
2023-05-24T04:10:57.915Z,1.33
2023-05-24T04:13:28.339Z,1.17
2023-05-24T04:16:15.750Z,1.30
2023-05-24T04:18:46.333Z,1.17
2023-05-24T04:21:17.241Z,1.40
2023-05-24T04:23:47.976Z,1.55
2023-05-24T04:26:18.289Z,1.80
2023-05-24T04:28:48.971Z,1.58
2023-05-24T04:31:21.620Z,1.40
2023-05-24T04:33:54.454Z,1.45
2023-05-24T04:36:29.246Z,1.50
2023-05-24T04:39:05.284Z,1.30
2023-05-24T04:41:36.350Z,1.45
2023-05-24T04:44:07.978Z,1.52
2023-05-24T04:46:40.528Z,1.65
2023-05-24T04:49:11.416Z,1.23
2023-05-24T04:51:41.758Z,1.52
2023-05-24T04:54:11.883Z,1.60
2023-05-24T04:56:42.369Z,1.50
2023-05-24T04:59:12.872Z,1.30
2023-05-24T05:01:45.284Z,1.20
2023-05-24T05:04:15.115Z,1.23
2023-05-24T05:06:47.059Z,1.30
2023-05-24T05:09:17.706Z,1.50
2023-05-24T05:11:49.449Z,1.50
2023-05-24T05:14:19.692Z,1.27
2023-05-24T05:16:51.761Z,1.30
2023-05-24T05:19:29.209Z,1.60
2023-05-24T05:21:59.760Z,1.63
2023-05-24T05:24:33.557Z,1.60
2023-05-24T05:27:07.571Z,1.40
2023-05-24T05:29:37.769Z,1.40
2023-05-24T05:32:11.774Z,1.40
2023-05-24T05:34:41.805Z,1.48
2023-05-24T05:37:12.322Z,1.85
2023-05-24T05:39:42.733Z,1.70
2023-05-24T05:42:18.812Z,1.73
2023-05-24T05:44:49.164Z,1.48
2023-05-24T05:47:22.452Z,1.60
2023-05-24T05:49:52.860Z,1.58
2023-05-24T05:52:23.116Z,1.35
2023-05-24T05:54:53.738Z,1.30
2023-05-24T05:57:25.014Z,1.70
2023-05-24T05:59:54.950Z,1.63
2023-05-24T06:02:27.838Z,1.70
2023-05-24T06:04:58.904Z,1.65
2023-05-24T06:07:29.357Z,1.70
2023-05-24T06:09:59.414Z,1.55
2023-05-24T06:12:31.657Z,1.50
2023-05-24T06:15:01.786Z,1.48
2023-05-24T06:17:35.036Z,1.52
2023-05-24T06:20:12.387Z,1.45
2023-05-24T06:22:43.331Z,1.50
2023-05-24T06:25:15.095Z,1.52
2023-05-24T06:27:45.509Z,1.52
2023-05-24T06:30:16.949Z,1.38
2023-05-24T06:32:49.687Z,1.45
2023-05-24T06:35:22.419Z,1.45
2023-05-24T06:37:53.087Z,1.30
2023-05-24T06:40:23.404Z,1.23
2023-05-24T06:42:53.753Z,1.50
2023-05-24T06:45:24.243Z,1.30
2023-05-24T06:47:56.297Z,1.40
2023-05-24T06:50:26.931Z,1.40
2023-05-24T06:52:57.489Z,1.13
2023-05-24T06:55:27.827Z,1.40
2023-05-24T06:57:58.164Z,1.77
2023-05-24T07:00:28.628Z,2.00
2023-05-24T07:03:01.681Z,2.10
2023-05-24T07:05:32.596Z,1.95
2023-05-24T07:08:03.123Z,1.80
2023-05-24T07:10:33.579Z,2.17
2023-05-24T07:13:04.416Z,2.40
2023-05-24T07:15:34.767Z,2.53
2023-05-24T07:18:07.719Z,1.70
2023-05-24T07:20:38.325Z,1.60
2023-05-24T07:23:09.127Z,1.75
2023-05-24T07:25:39.332Z,1.92
2023-05-24T07:28:09.193Z,1.80
2023-05-24T07:30:39.801Z,1.48
2023-05-24T07:33:12.015Z,1.58
2023-05-24T07:35:42.236Z,1.50
2023-05-24T07:38:13.034Z,1.48
2023-05-24T07:40:43.661Z,1.40
2023-05-24T07:43:14.405Z,1.45
2023-05-24T07:45:44.906Z,1.27
2023-05-24T07:48:17.437Z,1.65
2023-05-24T07:50:49.309Z,1.48
2023-05-24T07:53:19.976Z,1.60
2023-05-24T07:55:51.284Z,1.90
2023-05-24T07:58:21.631Z,1.50
2023-05-24T08:00:52.100Z,1.60
2023-05-24T08:03:25.689Z,1.15
2023-05-24T08:05:56.359Z,1.50
2023-05-24T08:08:26.327Z,1.25
2023-05-24T08:10:56.340Z,1.58
2023-05-24T08:13:27.003Z,1.48
2023-05-24T08:15:58.879Z,1.20
2023-05-24T08:18:45.563Z,1.40
2023-05-24T08:21:16.860Z,1.42
2023-05-24T08:23:47.939Z,1.50
2023-05-24T08:26:19.692Z,1.40
2023-05-24T08:28:49.925Z,1.63
2023-05-24T08:31:20.297Z,1.60
2023-05-24T08:33:53.428Z,1.50
2023-05-24T08:36:23.798Z,1.45
2023-05-24T08:38:54.278Z,1.30
2023-05-24T08:41:24.722Z,1.38
2023-05-24T08:43:56.234Z,1.48
2023-05-24T08:46:27.420Z,1.50
2023-05-24T08:49:03.884Z,1.52
2023-05-24T08:51:34.586Z,1.50
2023-05-24T08:54:07.487Z,1.50
2023-05-24T08:56:39.679Z,1.40
2023-05-24T08:59:11.868Z,1.60
2023-05-24T09:01:44.484Z,1.45
2023-05-24T09:04:17.191Z,1.65
2023-05-24T09:06:48.591Z,1.23
2023-05-24T09:09:24.034Z,1.50
2023-05-24T09:11:58.846Z,1.40
2023-05-24T09:14:30.134Z,1.40
2023-05-24T09:17:01.619Z,1.40
2023-05-24T09:19:33.479Z,1.45
2023-05-24T09:22:04.075Z,1.65
2023-05-24T09:24:51.546Z,1.70
2023-05-24T09:27:24.719Z,1.27
2023-05-24T09:29:55.671Z,1.15
2023-05-24T09:32:26.501Z,1.48
2023-05-24T09:35:01.729Z,1.42
2023-05-24T09:37:34.043Z,1.63
2023-05-24T09:40:07.361Z,1.33
2023-05-24T09:42:37.977Z,1.52
2023-05-24T09:45:11.065Z,1.40
2023-05-24T09:47:43.064Z,1.45
2023-05-24T09:50:19.773Z,1.33
2023-05-24T09:52:50.665Z,1.27
2023-05-24T09:55:22.935Z,1.58
2023-05-24T09:58:05.414Z,1.50
2023-05-24T10:00:40.325Z,1.23
2023-05-24T10:03:18.209Z,1.42
2023-05-24T10:05:52.214Z,1.30
2023-05-24T10:08:37.051Z,1.20
2023-05-24T10:11:09.255Z,1.27
2023-05-24T10:13:40.389Z,1.30
2023-05-24T10:16:11.951Z,1.40
2023-05-24T10:18:42.399Z,1.10
2023-05-24T10:21:15.829Z,1.50
2023-05-24T10:23:53.186Z,0.98
2023-05-24T10:26:27.846Z,1.35
2023-05-24T10:29:07.286Z,1.50
2023-05-24T10:31:43.865Z,1.15
2023-05-24T10:34:15.006Z,1.17
2023-05-24T10:36:48.703Z,1.40
2023-05-24T10:39:22.547Z,1.00
2023-05-24T10:41:53.194Z,1.00
2023-05-24T10:44:24.665Z,1.15
2023-05-24T10:47:17.823Z,1.23
2023-05-24T10:49:55.699Z,1.13
2023-05-24T10:52:37.839Z,1.15
2023-05-24T10:55:11.461Z,1.02
2023-05-24T10:57:43.754Z,1.38
2023-05-24T11:00:36.324Z,1.20
2023-05-24T11:03:11.325Z,1.05
2023-05-24T11:05:55.557Z,1.20
2023-05-24T11:08:38.500Z,1.15
2023-05-24T11:13:51.541Z,1.20
2023-05-24T11:16:39.547Z,1.40
2023-05-24T11:19:24.446Z,1.20
2023-05-24T11:21:59.368Z,1.40
2023-05-24T11:24:32.906Z,1.33
2023-05-24T11:27:04.870Z,1.27
2023-05-24T11:29:36.846Z,1.20
2023-05-24T11:32:10.270Z,1.20
2023-05-24T11:34:45.639Z,1.45
2023-05-24T11:37:17.999Z,1.38
2023-05-24T11:39:54.926Z,1.30
2023-05-24T11:42:27.084Z,1.58
2023-05-24T11:44:58.057Z,1.08
2023-05-24T11:47:28.801Z,1.13
2023-05-24T11:50:00.155Z,1.52
2023-05-24T11:52:33.200Z,1.60
2023-05-24T11:55:08.984Z,1.60
2023-05-24T11:57:46.021Z,1.13
2023-05-24T12:00:27.816Z,1.30
2023-05-24T12:03:05.560Z,1.35
2023-05-24T12:05:37.289Z,1.20
2023-05-24T12:08:12.422Z,1.25
2023-05-24T12:10:46.213Z,1.20
2023-05-24T12:13:25.818Z,1.25
2023-05-24T12:15:58.620Z,1.50
2023-05-24T12:18:33.802Z,1.50
2023-05-24T12:21:04.031Z,1.13
2023-05-24T12:23:40.364Z,1.40
2023-05-24T12:26:18.005Z,1.60
2023-05-24T12:28:49.852Z,1.20
2023-05-24T12:31:21.075Z,1.15
2023-05-24T12:33:54.200Z,1.33
2023-05-24T12:36:25.523Z,1.40
2023-05-24T12:39:01.037Z,1.42
2023-05-24T12:41:36.995Z,1.33
2023-05-24T12:44:08.507Z,1.45
2023-05-24T12:46:39.599Z,1.35
2023-05-24T12:49:10.046Z,1.70
2023-05-24T12:51:40.178Z,1.30
2023-05-24T12:54:10.949Z,1.48
2023-05-24T12:56:43.506Z,1.33
2023-05-24T12:59:14.912Z,1.23
2023-05-24T13:01:52.297Z,1.52
2023-05-24T13:04:27.934Z,1.55
2023-05-24T13:07:00.604Z,1.60
2023-05-24T13:09:30.809Z,1.30
2023-05-24T13:12:03.477Z,1.30
2023-05-24T13:14:34.758Z,1.38
2023-05-24T13:17:07.448Z,1.48
2023-05-24T13:19:38.195Z,1.38
2023-05-24T13:22:11.505Z,1.48
2023-05-24T13:24:45.940Z,1.70
2023-05-24T13:27:52.170Z,1.35
2023-05-24T13:30:52.670Z,1.30
2023-05-24T13:33:38.119Z,1.30
2023-05-24T13:37:15.847Z,1.33
2023-05-24T13:39:52.659Z,1.13
2023-05-24T13:42:28.475Z,1.23
2023-05-24T13:45:01.773Z,1.30
2023-05-24T13:47:40.412Z,1.40
2023-05-24T13:50:12.767Z,1.13
2023-05-24T13:52:46.195Z,1.52
2023-05-24T13:55:16.096Z,1.52
2023-05-24T13:57:52.505Z,1.30
2023-05-24T14:00:24.451Z,1.60
2023-05-24T14:02:58.578Z,1.38
2023-05-24T14:05:31.174Z,1.00
2023-05-24T14:08:07.238Z,1.25
2023-05-24T14:10:47.033Z,1.17
2023-05-24T14:13:55.692Z,1.30
2023-05-24T14:16:18.628Z,1.20
2023-05-24T14:18:52.397Z,1.10
2023-05-24T14:21:27.775Z,1.08
2023-05-24T14:24:05.413Z,1.20
2023-05-24T14:26:37.911Z,1.30
2023-05-24T14:29:11.776Z,1.30
2023-05-24T14:31:44.306Z,1.20
2023-05-24T14:34:17.692Z,0.98
2023-05-24T14:36:49.189Z,1.13
2023-05-24T14:39:19.627Z,1.35
2023-05-24T14:42:03.861Z,1.40
2023-05-24T14:44:37.672Z,1.23
2023-05-24T14:47:08.825Z,1.05
2023-05-24T14:49:39.588Z,1.60
2023-05-24T14:52:21.129Z,1.40
2023-05-24T14:54:53.322Z,1.40
2023-05-24T14:57:25.664Z,1.35
2023-05-24T15:00:01.143Z,1.48
2023-05-24T15:02:31.886Z,1.38
2023-05-24T15:05:02.710Z,1.25
2023-05-24T15:07:33.315Z,1.42
2023-05-24T15:10:04.025Z,1.60
2023-05-24T15:12:34.685Z,1.67
2023-05-24T15:15:09.610Z,1.75
2023-05-24T15:17:42.975Z,1.75
2023-05-24T15:20:14.324Z,1.60
2023-05-24T15:22:44.275Z,1.65
2023-05-24T15:25:14.202Z,1.65
2023-05-24T15:27:44.913Z,1.52
2023-05-24T15:30:17.905Z,1.70
2023-05-24T15:32:47.826Z,1.60
2023-05-24T15:35:19.269Z,1.35
2023-05-24T15:37:49.241Z,1.90
2023-05-24T15:40:20.463Z,1.65
2023-05-24T15:42:53.179Z,1.67
2023-05-24T15:45:27.026Z,1.50
2023-05-24T15:48:07.440Z,1.58
2023-05-24T15:59:10.731Z,1.50
2023-05-24T16:05:09.217Z,1.40
2023-05-24T16:07:41.346Z,1.73
2023-05-24T16:10:12.226Z,1.45
2023-05-24T16:12:45.538Z,1.58
2023-05-24T16:15:26.944Z,1.65
2023-05-24T16:17:59.220Z,1.70
2023-05-24T16:20:29.348Z,1.80
2023-05-24T16:23:01.068Z,1.90
2023-05-24T16:25:34.215Z,1.85
2023-05-24T16:28:04.399Z,2.00
2023-05-24T16:30:35.048Z,1.80
2023-05-24T16:33:10.583Z,1.85
2023-05-24T16:35:41.350Z,1.90
2023-05-24T16:38:11.340Z,1.80
2023-05-24T16:40:42.299Z,1.90
2023-05-24T16:43:13.033Z,1.80
2023-05-24T16:45:43.284Z,2.00
2023-05-24T16:48:15.441Z,1.80
2023-05-24T16:50:46.114Z,1.90
2023-05-24T16:53:16.644Z,1.73
2023-05-24T16:55:46.546Z,2.10
2023-05-24T16:58:17.128Z,1.85
2023-05-24T17:00:47.494Z,1.92
2023-05-24T17:03:22.310Z,1.90
2023-05-24T17:05:53.560Z,1.88
2023-05-24T17:08:24.118Z,2.00
2023-05-24T17:11:05.327Z,1.90
2023-05-24T17:13:36.538Z,1.70
2023-05-24T17:16:08.747Z,1.98
2023-05-24T17:18:41.348Z,2.20
2023-05-24T17:21:11.888Z,1.95
2023-05-24T17:23:42.835Z,1.88
2023-05-24T17:26:16.223Z,1.98
2023-05-24T17:28:51.254Z,2.10
2023-05-24T17:31:22.531Z,1.77
2023-05-24T17:33:54.971Z,2.17
2023-05-24T17:36:34.216Z,1.90
2023-05-24T17:39:11.640Z,1.77
2023-05-24T17:41:42.477Z,2.00
2023-05-24T17:44:13.363Z,2.00
2023-05-24T17:46:44.218Z,2.05
2023-05-24T17:49:16.984Z,2.17
2023-05-24T17:51:47.154Z,1.90
2023-05-24T17:54:17.660Z,2.13
2023-05-24T17:56:48.386Z,1.92
2023-05-24T17:59:21.185Z,2.20
2023-05-24T18:01:52.193Z,2.03
2023-05-24T18:04:24.436Z,2.03
2023-05-24T18:06:55.005Z,1.90
2023-05-24T18:09:25.948Z,2.10
2023-05-24T18:11:59.265Z,2.05
2023-05-24T18:14:34.755Z,2.15
2023-05-24T18:17:14.315Z,1.95
2023-05-24T18:19:53.961Z,2.30
2023-05-24T18:22:24.835Z,2.15
2023-05-24T18:24:55.412Z,1.80
2023-05-24T18:27:27.091Z,1.77
2023-05-24T18:29:57.281Z,1.90
2023-05-24T18:32:28.049Z,2.00
2023-05-24T18:35:00.314Z,1.98
2023-05-24T18:37:30.436Z,1.80
2023-05-24T18:40:01.271Z,2.03
2023-05-24T18:42:31.992Z,2.08
2023-05-24T18:45:02.395Z,1.83
2023-05-24T18:47:33.605Z,2.00
2023-05-24T18:50:08.317Z,2.00
2023-05-24T18:52:38.858Z,1.92
2023-05-24T18:55:13.012Z,2.05
2023-05-24T18:57:43.266Z,1.90
2023-05-24T19:00:15.663Z,1.90
2023-05-24T19:02:46.261Z,1.83
2023-05-24T19:05:20.445Z,1.92
2023-05-24T19:07:51.429Z,1.48
2023-05-24T19:10:21.536Z,2.10
2023-05-24T19:12:55.185Z,1.88
2023-05-24T19:15:26.577Z,1.58
2023-05-24T19:17:58.392Z,1.83
2023-05-24T19:20:30.351Z,1.75
2023-05-24T19:23:01.877Z,1.70
2023-05-24T19:25:32.308Z,1.80
2023-05-24T19:28:02.099Z,1.60
2023-05-24T19:30:34.402Z,2.05
2023-05-24T19:33:05.206Z,1.77
2023-05-24T19:35:37.778Z,2.00
2023-05-24T19:38:09.243Z,1.77
2023-05-24T19:40:39.662Z,1.73
2023-05-24T19:43:09.848Z,1.90
2023-05-24T19:45:40.393Z,1.88
2023-05-24T19:48:11.305Z,1.80
2023-05-24T19:50:44.750Z,2.03
2023-05-24T19:53:18.105Z,2.03
2023-05-24T19:55:48.078Z,1.88
2023-05-24T19:58:18.740Z,1.95
2023-05-24T20:00:49.177Z,1.73
2023-05-24T20:03:19.510Z,1.67
2023-05-24T20:05:51.845Z,1.77
2023-05-24T20:08:27.216Z,1.85
2023-05-24T20:10:57.766Z,1.58
2023-05-24T20:13:28.037Z,1.80
2023-05-24T20:15:58.616Z,1.80
2023-05-24T20:18:29.069Z,2.00
2023-05-24T20:21:01.658Z,1.73
2023-05-24T20:23:32.322Z,1.70
2023-05-24T20:26:03.619Z,1.95
2023-05-24T20:28:34.180Z,1.70
2023-05-24T20:31:04.638Z,1.70
2023-05-24T20:34:01.416Z,1.70
2023-05-24T20:36:34.797Z,1.48
2023-05-24T20:39:05.241Z,1.52
2023-05-24T20:41:35.557Z,1.77
2023-05-24T20:44:05.437Z,1.85
2023-05-24T20:46:37.059Z,1.70
2023-05-24T20:49:07.856Z,2.03
2023-05-24T20:51:40.415Z,1.95
2023-05-24T20:54:12.398Z,1.80
2023-05-24T20:56:43.442Z,1.70
2023-05-24T20:59:13.860Z,1.80
2023-05-24T21:01:44.586Z,1.70
2023-05-24T21:04:14.866Z,1.85
2023-05-24T21:06:47.182Z,1.92
2023-05-24T21:09:17.323Z,1.73
2023-05-24T21:11:47.813Z,1.45
2023-05-24T21:14:18.849Z,1.88
2023-05-24T21:16:49.531Z,1.70
2023-05-24T21:19:20.115Z,1.63
2023-05-24T21:21:52.893Z,1.70
2023-05-24T21:24:23.293Z,1.70
2023-05-24T21:26:54.212Z,1.83
2023-05-24T21:29:24.068Z,1.90
2023-05-24T21:31:54.185Z,1.83
2023-05-24T21:34:24.477Z,1.65
2023-05-24T21:36:56.901Z,2.05
2023-05-24T21:39:27.251Z,1.70
2023-05-24T21:41:57.770Z,1.60
2023-05-24T21:44:28.446Z,1.67
2023-05-24T21:46:59.520Z,1.73
2023-05-24T21:49:29.805Z,2.00
2023-05-24T21:52:02.526Z,1.38
2023-05-24T21:54:33.064Z,1.80
2023-05-24T21:57:04.182Z,1.58
2023-05-24T21:59:34.420Z,2.05
2023-05-24T22:02:05.356Z,1.73
2023-05-24T22:04:36.459Z,1.90
2023-05-24T22:07:09.162Z,1.80
2023-05-24T22:09:39.719Z,1.95
2023-05-24T22:12:10.674Z,1.90
2023-05-24T22:14:40.787Z,1.80
2023-05-24T22:17:11.762Z,1.80
2023-05-24T22:19:42.236Z,1.80
2023-05-24T22:22:15.856Z,1.60
2023-05-24T22:24:47.570Z,1.80
2023-05-24T22:27:18.920Z,1.70
2023-05-24T22:29:49.212Z,1.80
2023-05-24T22:32:19.866Z,1.65
2023-05-24T22:34:50.445Z,1.58
2023-05-24T22:37:22.724Z,1.70
2023-05-24T22:39:53.307Z,1.77
2023-05-24T22:42:23.597Z,1.80
2023-05-24T22:44:54.104Z,1.35
2023-05-24T22:47:25.285Z,1.58
2023-05-24T22:49:56.140Z,1.67
2023-05-24T22:52:28.760Z,1.80
2023-05-24T22:54:59.649Z,1.48
2023-05-24T22:57:30.472Z,1.60
2023-05-24T23:00:00.594Z,2.15
2023-05-24T23:02:32.106Z,1.90
2023-05-24T23:05:04.712Z,1.75
2023-05-24T23:07:37.894Z,1.73
2023-05-24T23:10:10.594Z,2.10
2023-05-24T23:12:42.837Z,1.92
2023-05-24T23:15:18.943Z,2.05
2023-05-24T23:17:52.846Z,2.15
2023-05-24T23:20:23.770Z,2.03
2023-05-24T23:22:56.429Z,2.22
2023-05-24T23:25:26.713Z,2.30
2023-05-24T23:27:57.335Z,2.17
2023-05-24T23:30:27.708Z,2.42
2023-05-24T23:32:58.323Z,2.25
2023-05-24T23:35:28.767Z,2.40
2023-05-24T23:38:00.208Z,2.17
2023-05-24T23:40:30.517Z,2.22
2023-05-24T23:43:01.231Z,2.38
2023-05-24T23:45:31.629Z,2.20
2023-05-24T23:48:02.566Z,2.47
2023-05-24T23:50:39.912Z,2.55
2023-05-24T23:53:15.880Z,2.70
2023-05-24T23:55:48.967Z,2.30
2023-05-24T23:58:19.214Z,2.15
